Time;durP1;ratioP1;P1;durP2;ratioP2;P2;SDS_P1;SDS_P2;PMS_P1;PMS_P2;Temp;Humidity;BMP_temperature;BMP_pressure;BME280_temperature;BME280_humidity;BME280_pressure;Samples;Min_cycle;Max_cycle;Signal;HPM_P1;HPM_P2
2021/10/13 00:01:49;;;;;;;20.33;14.83;;;8.90;99.90;;;;;;5056445;28;20206;-67
2021/10/13 00:04:16;;;;;;;19.83;15.00;;;8.90;99.90;;;;;;5055108;28;20201;-68
2021/10/13 00:06:43;;;;;;;20.50;15.40;;;8.90;99.90;;;;;;5053492;28;20209;-67
2021/10/13 00:09:10;;;;;;;23.33;16.10;;;8.90;99.90;;;;;;5053595;28;20213;-68
2021/10/13 00:11:40;;;;;;;21.57;14.70;;;8.90;99.90;;;;;;5056322;28;20213;-67
2021/10/13 00:14:07;;;;;;;23.23;15.77;;;8.90;99.90;;;;;;5067774;28;20634;-67
2021/10/13 00:16:35;;;;;;;22.40;16.13;;;8.80;99.90;;;;;;5062027;28;20212;-68
2021/10/13 00:19:02;;;;;;;24.00;15.73;;;8.80;99.90;;;;;;5053568;28;20233;-68
2021/10/13 00:21:28;;;;;;;22.10;16.23;;;8.90;99.90;;;;;;5056116;28;20217;-66
2021/10/13 00:23:55;;;;;;;28.47;16.67;;;8.90;99.90;;;;;;5057905;28;20208;-68
2021/10/13 00:26:22;;;;;;;21.50;14.07;;;9.00;99.90;;;;;;5053074;28;20538;-67
2021/10/13 00:28:50;;;;;;;19.23;14.73;;;8.90;99.90;;;;;;5055060;28;20229;-67
2021/10/13 00:31:17;;;;;;;22.20;14.43;;;8.90;99.90;;;;;;5061120;28;20210;-67
2021/10/13 00:33:44;;;;;;;22.17;15.90;;;8.90;99.90;;;;;;5064033;28;20229;-68
2021/10/13 00:36:11;;;;;;;20.47;15.77;;;8.90;99.90;;;;;;5072609;28;20217;-66
2021/10/13 00:38:37;;;;;;;21.50;14.90;;;8.90;99.90;;;;;;5055743;28;20678;-67
2021/10/13 00:41:04;;;;;;;20.57;14.93;;;9.00;99.90;;;;;;5057905;28;20198;-67
2021/10/13 00:43:31;;;;;;;21.33;15.50;;;8.90;99.90;;;;;;5070857;28;20205;-67
2021/10/13 00:45:59;;;;;;;25.33;16.87;;;8.90;99.90;;;;;;5059025;28;20202;-68
2021/10/13 00:48:26;;;;;;;25.87;16.97;;;8.90;99.90;;;;;;5058966;28;20210;-67
2021/10/13 00:50:54;;;;;;;22.90;15.53;;;8.90;99.90;;;;;;5054627;28;20317;-67
2021/10/13 00:53:21;;;;;;;25.00;16.00;;;8.80;99.90;;;;;;5073539;28;20198;-67
2021/10/13 00:55:48;;;;;;;24.60;16.27;;;8.80;99.90;;;;;;5058579;28;20201;-66
2021/10/13 00:58:14;;;;;;;22.67;16.57;;;8.80;99.90;;;;;;5066757;28;20204;-67
2021/10/13 01:00:45;;;;;;;24.60;16.47;;;8.80;99.90;;;;;;5053941;28;20209;-67
2021/10/13 01:03:19;;;;;;;24.27;17.10;;;8.70;99.90;;;;;;5058298;28;20216;-67
2021/10/13 01:06:01;;;;;;;27.43;18.03;;;8.70;99.90;;;;;;5061632;28;20202;-68
2021/10/13 01:08:35;;;;;;;25.90;17.93;;;8.70;99.90;;;;;;5052286;28;20201;-67
2021/10/13 01:11:15;;;;;;;25.07;17.87;;;8.70;99.90;;;;;;5052707;28;20201;-68
2021/10/13 01:13:53;;;;;;;24.90;17.87;;;8.70;99.90;;;;;;5060383;28;20205;-67
2021/10/13 01:16:26;;;;;;;22.47;17.10;;;8.60;99.90;;;;;;5071010;28;20279;-66
2021/10/13 01:19:00;;;;;;;25.40;17.70;;;8.60;99.90;;;;;;5052383;28;20288;-68
2021/10/13 01:21:43;;;;;;;26.73;17.03;;;8.50;99.90;;;;;;5053212;28;20216;-67
2021/10/13 01:24:49;;;;;;;23.37;15.97;;;8.50;99.90;;;;;;5056346;28;20206;-67
2021/10/13 01:27:51;;;;;;;26.53;18.13;;;8.60;99.90;;;;;;5030363;28;20206;-67
2021/10/13 01:30:19;;;;;;;24.90;17.67;;;8.50;99.90;;;;;;4992122;28;20243;-67
2021/10/13 01:33:04;;;;;;;24.03;17.53;;;8.60;99.90;;;;;;5049128;28;20658;-66
2021/10/13 01:35:33;;;;;;;24.07;16.73;;;8.60;99.90;;;;;;5053466;28;20287;-67
2021/10/13 01:38:04;;;;;;;22.73;17.50;;;8.50;99.90;;;;;;5051802;28;20202;-67
2021/10/13 01:40:34;;;;;;;21.77;16.00;;;8.50;99.90;;;;;;5056729;28;20205;-69
2021/10/13 01:43:05;;;;;;;21.07;15.17;;;8.50;99.90;;;;;;5052754;28;20202;-67
2021/10/13 01:45:33;;;;;;;20.83;15.77;;;8.50;99.90;;;;;;5052306;28;20196;-66
2021/10/13 01:48:02;;;;;;;20.17;15.10;;;8.50;99.90;;;;;;5052385;28;20633;-67
2021/10/13 01:50:29;;;;;;;23.60;16.17;;;8.50;99.90;;;;;;5052119;28;20570;-66
2021/10/13 01:52:58;;;;;;;20.83;14.80;;;8.50;99.90;;;;;;5069253;28;20206;-66
2021/10/13 01:55:27;;;;;;;19.90;14.30;;;8.50;99.90;;;;;;5072408;28;20231;-68
2021/10/13 01:57:59;;;;;;;17.37;12.80;;;8.50;99.90;;;;;;5059017;28;20216;-68
2021/10/13 02:00:28;;;;;;;21.13;14.63;;;8.50;99.90;;;;;;5057706;28;20216;-67
2021/10/13 02:02:56;;;;;;;18.80;13.33;;;8.40;99.90;;;;;;5059286;28;20271;-67
2021/10/13 02:05:24;;;;;;;18.90;13.90;;;8.40;99.90;;;;;;5054923;28;20345;-66
2021/10/13 02:07:53;;;;;;;16.93;13.10;;;8.30;99.90;;;;;;5060015;28;20205;-67
2021/10/13 02:10:23;;;;;;;20.50;13.80;;;8.30;99.90;;;;;;5055778;28;20206;-67
2021/10/13 02:12:54;;;;;;;18.30;12.63;;;8.20;99.90;;;;;;5055645;28;20210;-65
2021/10/13 02:15:22;;;;;;;18.77;12.60;;;8.30;99.90;;;;;;5055020;28;20213;-68
2021/10/13 02:17:52;;;;;;;17.67;12.57;;;8.10;99.90;;;;;;5055538;28;20293;-68
2021/10/13 02:20:19;;;;;;;21.23;14.43;;;8.10;99.90;;;;;;5061307;28;20193;-67
2021/10/13 02:22:51;;;;;;;17.63;13.13;;;8.00;99.90;;;;;;5057817;28;20209;-69
2021/10/13 02:25:18;;;;;;;21.43;14.33;;;8.00;99.90;;;;;;5069847;28;20685;-67
2021/10/13 02:27:48;;;;;;;18.67;13.13;;;7.90;99.90;;;;;;5055817;28;20242;-70
2021/10/13 02:30:16;;;;;;;19.60;13.13;;;7.90;99.90;;;;;;5066266;28;20233;-68
2021/10/13 02:32:43;;;;;;;19.40;14.27;;;7.80;99.90;;;;;;5065292;28;20240;-67
2021/10/13 02:35:11;;;;;;;19.93;13.80;;;7.80;99.90;;;;;;5069325;28;20677;-67
2021/10/13 02:37:38;;;;;;;19.27;13.07;;;7.80;99.90;;;;;;5055357;28;20634;-67
2021/10/13 02:40:07;;;;;;;20.03;14.27;;;7.90;99.90;;;;;;5068827;28;20211;-68
2021/10/13 02:42:34;;;;;;;17.97;12.60;;;7.80;99.90;;;;;;5063336;28;20224;-67
2021/10/13 02:45:01;;;;;;;18.30;12.10;;;7.80;99.90;;;;;;5054727;28;20210;-67
2021/10/13 02:47:36;;;;;;;18.70;12.23;;;7.70;99.90;;;;;;5065238;28;20547;-68
2021/10/13 02:50:09;;;;;;;18.27;12.67;;;7.70;99.90;;;;;;5056679;28;20206;-68
2021/10/13 02:52:42;;;;;;;17.07;12.43;;;7.70;99.90;;;;;;5068707;28;20208;-67
2021/10/13 02:55:13;;;;;;;18.37;12.57;;;7.70;99.90;;;;;;5066214;28;20568;-67
2021/10/13 02:57:44;;;;;;;19.33;13.30;;;7.70;99.90;;;;;;5061727;28;20205;-67
2021/10/13 03:00:13;;;;;;;17.30;12.60;;;7.60;99.90;;;;;;5054442;28;20205;-67
2021/10/13 03:02:50;;;;;;;17.63;11.43;;;7.60;99.90;;;;;;5069775;28;20594;-67
2021/10/13 03:05:21;;;;;;;19.30;12.47;;;7.60;99.90;;;;;;5054696;28;20206;-66
2021/10/13 03:07:51;;;;;;;17.53;12.60;;;7.60;99.90;;;;;;5054391;28;20673;-66
2021/10/13 03:10:18;;;;;;;17.90;12.07;;;7.60;99.90;;;;;;5056077;28;20304;-67
2021/10/13 03:12:50;;;;;;;20.70;13.10;;;7.50;99.90;;;;;;5053695;28;20206;-67
2021/10/13 03:15:18;;;;;;;19.10;12.03;;;7.50;99.90;;;;;;5056142;28;20734;-67
2021/10/13 03:17:48;;;;;;;18.63;12.33;;;7.60;99.90;;;;;;5061837;28;20655;-67
2021/10/13 03:20:18;;;;;;;17.53;12.73;;;7.50;99.90;;;;;;5054833;28;20230;-66
2021/10/13 03:22:45;;;;;;;17.03;12.47;;;7.60;99.90;;;;;;5061708;28;20591;-67
2021/10/13 03:25:22;;;;;;;17.57;12.93;;;7.50;99.90;;;;;;5056360;28;20194;-67
2021/10/13 03:27:49;;;;;;;16.40;12.43;;;7.60;99.90;;;;;;5062966;28;20243;-67
2021/10/13 03:30:15;;;;;;;17.80;12.37;;;7.50;99.90;;;;;;5060270;28;20682;-66
2021/10/13 03:32:44;;;;;;;18.83;12.97;;;7.60;99.90;;;;;;5064761;28;20206;-67
2021/10/13 03:35:10;;;;;;;18.90;13.47;;;7.50;99.90;;;;;;5072797;28;20581;-67
2021/10/13 03:37:37;;;;;;;16.77;13.03;;;7.50;99.90;;;;;;5068772;28;20559;-66
2021/10/13 03:40:05;;;;;;;17.07;13.43;;;7.50;99.90;;;;;;5068642;28;20205;-66
2021/10/13 03:42:33;;;;;;;17.03;13.23;;;7.60;99.90;;;;;;5054449;28;20206;-66
2021/10/13 03:45:00;;;;;;;16.20;13.03;;;7.60;99.90;;;;;;5067663;28;20348;-66
2021/10/13 03:47:27;;;;;;;17.20;13.10;;;7.60;99.90;;;;;;5070043;28;20209;-67
2021/10/13 03:49:54;;;;;;;19.00;14.00;;;7.60;99.90;;;;;;5063096;28;20202;-67
2021/10/13 03:52:21;;;;;;;21.63;14.93;;;7.60;99.90;;;;;;5053790;28;20577;-67
2021/10/13 03:54:47;;;;;;;18.93;14.20;;;7.60;99.90;;;;;;5053740;28;20222;-67
2021/10/13 03:57:14;;;;;;;19.90;15.20;;;7.60;99.90;;;;;;5061444;28;20296;-67
2021/10/13 03:59:42;;;;;;;21.80;14.83;;;7.70;99.90;;;;;;5055279;28;20707;-68
2021/10/13 04:02:09;;;;;;;21.77;15.47;;;7.70;99.90;;;;;;5053349;28;20232;-67
2021/10/13 04:04:36;;;;;;;19.60;14.73;;;7.70;99.90;;;;;;5057350;28;20245;-67
2021/10/13 04:07:03;;;;;;;20.17;16.00;;;7.70;99.90;;;;;;5056915;28;20288;-66
2021/10/13 04:09:30;;;;;;;22.73;15.57;;;7.80;99.90;;;;;;5054835;28;20447;-67
2021/10/13 04:11:57;;;;;;;17.17;13.90;;;7.80;99.90;;;;;;5061326;28;20198;-67
2021/10/13 04:14:23;;;;;;;20.27;13.87;;;7.90;99.90;;;;;;5054006;28;20206;-67
2021/10/13 04:16:52;;;;;;;17.47;13.53;;;8.00;99.90;;;;;;5061605;28;20265;-67
2021/10/13 04:19:18;;;;;;;18.00;14.30;;;7.90;99.90;;;;;;5053520;28;20210;-66
2021/10/13 04:21:45;;;;;;;20.13;15.67;;;7.90;99.90;;;;;;5053735;28;20206;-67
2021/10/13 04:24:12;;;;;;;19.97;15.57;;;7.80;99.90;;;;;;5054313;28;20702;-67
2021/10/13 04:26:39;;;;;;;19.53;14.57;;;7.80;99.90;;;;;;5060589;28;20376;-67
2021/10/13 04:29:06;;;;;;;19.57;14.57;;;7.80;99.90;;;;;;5061831;28;20628;-67
2021/10/13 04:31:33;;;;;;;20.17;14.83;;;7.90;99.90;;;;;;5058695;28;20214;-68
2021/10/13 04:34:01;;;;;;;17.37;13.83;;;7.90;99.90;;;;;;5053587;28;20206;-67
2021/10/13 04:36:27;;;;;;;20.53;15.20;;;7.90;99.90;;;;;;5052977;28;20229;-66
2021/10/13 04:38:54;;;;;;;19.73;14.73;;;7.90;99.90;;;;;;5052245;28;20221;-67
2021/10/13 04:41:21;;;;;;;17.73;13.73;;;8.00;99.90;;;;;;5053422;28;20210;-67
2021/10/13 04:43:48;;;;;;;20.63;15.70;;;8.00;99.90;;;;;;5053259;28;20194;-66
2021/10/13 04:46:15;;;;;;;17.90;14.17;;;8.00;99.90;;;;;;5052686;28;20203;-67
2021/10/13 04:48:42;;;;;;;23.47;14.70;;;8.10;99.90;;;;;;5057604;28;20219;-67
2021/10/13 04:51:10;;;;;;;19.87;14.40;;;8.10;99.90;;;;;;5055268;28;20239;-67
2021/10/13 04:53:37;;;;;;;20.73;14.83;;;8.10;99.90;;;;;;5062112;28;20209;-67
2021/10/13 04:56:04;;;;;;;20.33;14.43;;;8.10;99.90;;;;;;5065149;28;20312;-66
2021/10/13 04:58:31;;;;;;;18.83;14.70;;;8.10;99.90;;;;;;5060698;28;20214;-68
2021/10/13 05:00:58;;;;;;;20.33;15.57;;;8.10;99.90;;;;;;5052638;28;20212;-68
2021/10/13 05:03:24;;;;;;;22.70;15.13;;;8.10;99.90;;;;;;5052168;28;20231;-68
2021/10/13 05:05:51;;;;;;;22.17;16.50;;;8.10;99.90;;;;;;5053063;28;20216;-68
2021/10/13 05:08:20;;;;;;;26.10;18.10;;;8.10;99.90;;;;;;5052867;28;20577;-67
2021/10/13 05:10:47;;;;;;;24.10;16.43;;;8.20;99.90;;;;;;5052977;28;20212;-69
2021/10/13 05:13:13;;;;;;;27.43;18.17;;;8.20;99.90;;;;;;5056087;28;20232;-67
2021/10/13 05:15:40;;;;;;;28.33;18.43;;;8.20;99.90;;;;;;5060219;28;20217;-67
2021/10/13 05:18:08;;;;;;;27.70;17.73;;;8.20;99.90;;;;;;5051171;28;20206;-68
2021/10/13 05:20:34;;;;;;;27.63;18.13;;;8.20;99.90;;;;;;5052331;28;20217;-67
2021/10/13 05:23:01;;;;;;;28.27;18.63;;;8.20;99.90;;;;;;5051392;28;20575;-68
2021/10/13 05:25:29;;;;;;;30.17;18.37;;;8.20;99.90;;;;;;5059861;28;20202;-74
2021/10/13 05:27:56;;;;;;;31.27;19.53;;;8.20;99.90;;;;;;5054553;28;20259;-73
2021/10/13 05:30:23;;;;;;;30.80;18.73;;;8.20;99.90;;;;;;5072289;28;20208;-75
2021/10/13 05:32:50;;;;;;;31.67;20.03;;;8.10;99.90;;;;;;5068118;28;20209;-68
2021/10/13 05:35:17;;;;;;;28.63;19.23;;;8.20;99.90;;;;;;5068682;28;20227;-68
2021/10/13 05:37:44;;;;;;;29.57;20.60;;;8.20;99.90;;;;;;5069229;28;20311;-66
2021/10/13 05:40:12;;;;;;;30.47;19.83;;;8.20;99.90;;;;;;5061896;28;20554;-67
2021/10/13 05:42:40;;;;;;;29.17;19.07;;;8.20;99.90;;;;;;5067746;28;20198;-71
2021/10/13 05:45:08;;;;;;;31.37;19.47;;;8.20;99.90;;;;;;5060294;28;20202;-70
2021/10/13 05:47:34;;;;;;;28.13;19.43;;;8.20;99.90;;;;;;5078232;28;20201;-72
2021/10/13 05:50:01;;;;;;;29.40;19.17;;;8.20;99.90;;;;;;5069889;28;20202;-71
2021/10/13 05:52:28;;;;;;;28.80;17.33;;;8.20;99.90;;;;;;5070865;28;20325;-70
2021/10/13 05:54:55;;;;;;;28.73;18.20;;;8.20;99.90;;;;;;5058004;28;20297;-73
2021/10/13 05:57:22;;;;;;;24.70;15.87;;;8.20;99.90;;;;;;5058603;28;20223;-69
2021/10/13 05:59:56;;;;;;;29.20;16.40;;;8.20;99.90;;;;;;5064110;28;20208;-69
2021/10/13 06:02:23;;;;;;;24.83;15.40;;;8.20;99.90;;;;;;5069429;28;20201;-71
2021/10/13 06:04:50;;;;;;;21.13;14.83;;;8.20;99.90;;;;;;5075887;28;20570;-71
2021/10/13 06:07:17;;;;;;;20.50;15.10;;;8.20;99.90;;;;;;5073531;28;20288;-70
2021/10/13 06:09:43;;;;;;;20.43;14.63;;;8.20;99.90;;;;;;5066451;28;20692;-71
2021/10/13 06:12:10;;;;;;;21.60;14.50;;;8.20;99.90;;;;;;5075751;28;20674;-70
2021/10/13 06:14:37;;;;;;;20.73;14.00;;;8.20;99.90;;;;;;5059204;28;20301;-74
2021/10/13 06:17:06;;;;;;;18.33;13.07;;;8.20;99.90;;;;;;5054943;28;20268;-70
2021/10/13 06:19:33;;;;;;;16.67;12.43;;;8.30;99.90;;;;;;5067736;28;20236;-70
2021/10/13 06:22:00;;;;;;;18.93;12.87;;;8.30;99.90;;;;;;5058889;28;20297;-72
2021/10/13 06:24:27;;;;;;;19.13;12.93;;;8.40;99.90;;;;;;5056315;28;20205;-71
2021/10/13 06:26:54;;;;;;;19.67;12.93;;;8.30;99.90;;;;;;5059455;28;20288;-71
2021/10/13 06:29:21;;;;;;;17.30;12.70;;;8.40;99.90;;;;;;5075694;28;20279;-69
2021/10/13 06:31:48;;;;;;;17.80;12.17;;;8.30;99.90;;;;;;5074096;28;20791;-68
2021/10/13 06:34:16;;;;;;;17.57;12.23;;;8.40;99.90;;;;;;5075198;28;20283;-67
2021/10/13 06:36:43;;;;;;;15.67;12.03;;;8.40;99.90;;;;;;5060835;28;20240;-69
2021/10/13 06:39:10;;;;;;;16.47;12.30;;;8.50;99.90;;;;;;5062714;28;20198;-70
2021/10/13 06:41:37;;;;;;;16.63;12.47;;;8.40;99.90;;;;;;5061185;28;20238;-68
2021/10/13 06:44:04;;;;;;;17.53;12.93;;;8.40;99.90;;;;;;5054562;28;20198;-70
2021/10/13 06:46:31;;;;;;;22.50;13.13;;;8.50;99.90;;;;;;5055148;28;20273;-70
2021/10/13 06:48:58;;;;;;;19.47;14.23;;;8.50;99.90;;;;;;5070165;28;20357;-69
2021/10/13 06:51:26;;;;;;;18.17;12.57;;;8.50;99.90;;;;;;5063566;28;20220;-69
2021/10/13 06:53:53;;;;;;;19.20;13.23;;;8.50;99.90;;;;;;5057792;28;20210;-68
2021/10/13 06:56:20;;;;;;;17.73;13.07;;;8.50;99.90;;;;;;5062723;28;20227;-68
2021/10/13 06:58:47;;;;;;;17.80;12.50;;;8.50;99.90;;;;;;5055463;28;20252;-67
2021/10/13 07:01:14;;;;;;;15.57;11.93;;;8.60;99.90;;;;;;5056416;28;20237;-69
2021/10/13 07:03:41;;;;;;;16.63;11.43;;;8.60;99.90;;;;;;5057773;28;20295;-69
2021/10/13 07:06:08;;;;;;;16.30;12.30;;;8.60;99.90;;;;;;5061039;28;20285;-70
2021/10/13 07:08:36;;;;;;;18.17;12.67;;;8.70;99.90;;;;;;5061171;28;20198;-70
2021/10/13 07:11:04;;;;;;;16.57;11.83;;;8.70;99.90;;;;;;5064010;28;20213;-69
2021/10/13 07:13:31;;;;;;;16.97;11.90;;;8.70;99.90;;;;;;5059409;28;20210;-70
2021/10/13 07:15:58;;;;;;;16.43;11.70;;;8.70;99.90;;;;;;5064164;28;20304;-69
2021/10/13 07:18:25;;;;;;;15.17;10.67;;;8.80;99.90;;;;;;5054414;28;20222;-70
2021/10/13 07:20:53;;;;;;;13.63;10.57;;;8.80;99.90;;;;;;5054739;28;20224;-70
2021/10/13 07:23:19;;;;;;;17.43;11.23;;;8.80;99.90;;;;;;5053650;28;20213;-70
2021/10/13 07:25:48;;;;;;;14.63;10.53;;;8.80;99.90;;;;;;5058736;28;20630;-69
2021/10/13 07:28:15;;;;;;;14.63;10.60;;;8.80;99.90;;;;;;5057980;28;20316;-68
2021/10/13 07:30:42;;;;;;;16.87;11.13;;;8.80;99.90;;;;;;5057264;28;20202;-68
2021/10/13 07:33:09;;;;;;;14.30;10.70;;;8.80;99.90;;;;;;5059811;28;20324;-68
2021/10/13 07:35:37;;;;;;;12.13;10.23;;;8.80;99.90;;;;;;5067798;28;20648;-68
2021/10/13 07:38:04;;;;;;;13.00;10.73;;;8.80;99.90;;;;;;5056472;28;20631;-69
2021/10/13 07:40:32;;;;;;;14.00;10.73;;;8.80;99.90;;;;;;5056743;28;20213;-70
2021/10/13 07:43:00;;;;;;;10.57;9.43;;;8.80;99.90;;;;;;5062757;28;20209;-70
2021/10/13 07:45:27;;;;;;;13.73;9.70;;;8.80;99.90;;;;;;5064622;28;20206;-70
2021/10/13 07:47:54;;;;;;;12.87;9.87;;;8.90;99.90;;;;;;5058082;28;20210;-70
2021/10/13 07:50:21;;;;;;;13.73;11.57;;;8.90;99.90;;;;;;5055289;28;20241;-69
2021/10/13 07:52:48;;;;;;;13.43;9.40;;;8.90;99.90;;;;;;5066592;28;20216;-70
2021/10/13 07:55:15;;;;;;;11.30;8.53;;;9.00;99.90;;;;;;5066507;28;20202;-71
2021/10/13 07:57:42;;;;;;;11.77;8.47;;;9.10;99.90;;;;;;5067269;28;20229;-70
2021/10/13 08:00:12;;;;;;;11.83;8.03;;;9.20;99.90;;;;;;5054650;28;20198;-71
2021/10/13 08:02:44;;;;;;;11.50;8.43;;;9.40;99.90;;;;;;5056251;28;20228;-69
2021/10/13 08:05:11;;;;;;;11.23;8.27;;;9.50;99.90;;;;;;5059361;28;20670;-71
2021/10/13 08:07:39;;;;;;;11.20;8.47;;;9.90;99.90;;;;;;5059117;28;20209;-71
2021/10/13 08:10:06;;;;;;;12.27;8.87;;;10.10;99.90;;;;;;5059180;28;20206;-72
2021/10/13 08:12:33;;;;;;;10.10;7.47;;;10.30;99.90;;;;;;5055939;28;20647;-69
2021/10/13 08:15:00;;;;;;;10.70;7.90;;;10.50;99.90;;;;;;5056262;28;20206;-70
2021/10/13 08:17:28;;;;;;;11.40;8.40;;;10.60;99.90;;;;;;5063061;28;20225;-71
2021/10/13 08:19:55;;;;;;;9.87;7.53;;;10.70;99.90;;;;;;5067668;28;21017;-69
2021/10/13 08:22:22;;;;;;;10.15;8.85;;;11.00;99.90;;;;;;5072948;28;20456;-71
2021/10/13 08:24:49;;;;;;;9.73;7.53;;;11.20;99.90;;;;;;5071082;28;20206;-69
2021/10/13 08:27:16;;;;;;;8.70;7.43;;;11.50;99.90;;;;;;5071116;28;20220;-70
2021/10/13 08:29:43;;;;;;;8.77;7.60;;;11.70;99.90;;;;;;5062407;28;20341;-69
2021/10/13 08:32:11;;;;;;;9.23;6.23;;;12.10;99.90;;;;;;5058863;28;20567;-70
2021/10/13 08:34:39;;;;;;;9.83;7.20;;;12.30;99.90;;;;;;5069635;28;20450;-69
2021/10/13 08:37:08;;;;;;;8.43;7.07;;;12.50;99.90;;;;;;5071287;28;20487;-70
2021/10/13 08:39:35;;;;;;;10.10;8.75;;;12.80;99.90;;;;;;5063167;28;20829;-71
2021/10/13 08:42:01;;;;;;;7.63;6.23;;;13.00;99.90;;;;;;5067965;28;20213;-71
2021/10/13 08:44:28;;;;;;;9.97;6.57;;;13.10;99.90;;;;;;5056665;28;20205;-69
2021/10/13 08:46:55;;;;;;;6.43;5.77;;;13.30;99.90;;;;;;5061870;28;20659;-71
2021/10/13 08:49:22;;;;;;;7.50;5.87;;;13.50;99.90;;;;;;5057629;28;20212;-70
2021/10/13 08:51:51;;;;;;;7.27;6.40;;;13.90;99.90;;;;;;5053816;28;20208;-71
2021/10/13 08:54:19;;;;;;;7.40;6.60;;;15.20;99.90;;;;;;5055741;28;20198;-71
2021/10/13 08:56:47;;;;;;;12.00;8.60;;;18.50;99.90;;;;;;5053736;28;20590;-71
2021/10/13 08:59:39;;;;;;;9.90;7.38;;;21.10;89.90;;;;;;5053740;28;20212;-72
2021/10/13 09:02:06;;;;;;;6.75;5.90;;;23.00;73.60;;;;;;5056249;28;20214;-72
2021/10/13 09:04:33;;;;;;;7.32;6.60;;;24.20;62.50;;;;;;5056581;28;20205;-70
2021/10/13 09:07:03;;;;;;;6.05;4.97;;;24.20;62.40;;;;;;5055447;28;20232;-72
2021/10/13 09:09:31;;;;;;;4.82;4.32;;;24.90;57.60;;;;;;5055439;28;20202;-71
2021/10/13 09:11:58;;;;;;;5.25;4.25;;;24.30;53.10;;;;;;5055609;28;20634;-71
2021/10/13 09:14:27;;;;;;;3.85;3.55;;;23.50;60.60;;;;;;5057568;28;20576;-70
2021/10/13 09:17:00;;;;;;;4.53;3.50;;;23.20;53.60;;;;;;5054195;28;20320;-71
2021/10/13 09:19:29;;;;;;;4.55;4.15;;;22.10;53.10;;;;;;5054727;28;20206;-70
2021/10/13 09:21:57;;;;;;;6.32;5.20;;;21.50;65.00;;;;;;5053379;28;20221;-69
2021/10/13 09:24:27;;;;;;;5.72;5.22;;;23.60;58.70;;;;;;5058357;28;20291;-70
2021/10/13 09:26:55;;;;;;;5.75;5.18;;;26.30;51.60;;;;;;5056186;28;20220;-67
2021/10/13 09:29:22;;;;;;;6.90;5.40;;;29.00;47.10;;;;;;5053728;28;20324;-69
2021/10/13 09:31:57;;;;;;;4.72;4.32;;;31.10;41.60;;;;;;5052127;28;20565;-68
2021/10/13 09:34:25;;;;;;;5.45;4.32;;;32.20;39.20;;;;;;5057921;28;20237;-68
2021/10/13 09:36:58;;;;;;;4.80;4.40;;;33.40;37.30;;;;;;5056677;28;20229;-68
2021/10/13 09:39:29;;;;;;;3.72;3.42;;;34.30;35.00;;;;;;5054167;28;20564;-68
2021/10/13 09:41:58;;;;;;;4.72;3.53;;;34.70;34.30;;;;;;5059668;28;20201;-70
2021/10/13 09:44:25;;;;;;;3.83;3.42;;;33.80;33.60;;;;;;5059276;28;20217;-67
2021/10/13 09:46:56;;;;;;;4.43;3.55;;;33.40;32.90;;;;;;5061694;28;20217;-67
2021/10/13 09:49:30;;;;;;;3.50;3.25;;;32.70;33.10;;;;;;5063422;28;20205;-68
2021/10/13 09:52:05;;;;;;;3.00;2.70;;;30.70;33.90;;;;;;5057562;28;20223;-68
2021/10/13 09:54:35;;;;;;;3.20;2.90;;;29.30;36.60;;;;;;5051841;28;20210;-68
2021/10/13 09:57:23;;;;;;;3.50;3.20;;;28.50;37.60;;;;;;5060069;28;20233;-68
2021/10/13 10:00:01;;;;;;;3.78;3.47;;;28.50;39.60;;;;;;5051655;28;20197;-68
2021/10/13 10:02:34;;;;;;;3.88;3.47;;;30.00;38.30;;;;;;5053321;28;20634;-68
2021/10/13 10:05:03;;;;;;;2.78;2.58;;;32.60;35.60;;;;;;5050395;28;20198;-69
2021/10/13 10:07:30;;;;;;;3.22;2.92;;;35.30;32.50;;;;;;5052436;28;20248;-69
2021/10/13 10:10:12;;;;;;;3.17;2.88;;;36.40;29.60;;;;;;5065100;28;20526;-70
2021/10/13 10:13:03;;;;;;;2.83;2.45;;;34.50;29.90;;;;;;5051185;28;20289;-69
2021/10/13 10:15:35;;;;;;;3.85;2.72;;;31.90;31.70;;;;;;5057605;28;20212;-70
2021/10/13 10:18:22;;;;;;;3.83;2.70;;;29.60;34.40;;;;;;5059045;28;20230;-70
2021/10/13 10:20:49;;;;;;;3.13;2.83;;;27.70;36.40;;;;;;5055980;28;20209;-71
2021/10/13 10:23:31;;;;;;;4.00;3.60;;;25.70;38.60;;;;;;5061646;28;20256;-70
2021/10/13 10:26:01;;;;;;;4.13;3.13;;;23.90;41.20;;;;;;5058037;28;20289;-69
2021/10/13 10:28:54;;;;;;;4.15;3.53;;;22.40;43.00;;;;;;5065254;28;20228;-70
2021/10/13 10:31:32;;;;;;;5.03;3.22;;;21.00;45.50;;;;;;5059922;28;20266;-70
2021/10/13 10:34:12;;;;;;;3.92;3.05;;;20.20;47.70;;;;;;5063243;28;20198;-70
2021/10/13 10:37:14;;;;;;;4.57;3.88;;;20.50;51.80;;;;;;5062175;28;20252;-69
2021/10/13 10:40:04;;;;;;;7.32;2.88;;;21.60;48.60;;;;;;5059359;28;20292;-69
2021/10/13 10:43:07;;;;;;;4.55;2.55;;;21.30;46.10;;;;;;5069135;28;20211;-70
2021/10/13 10:45:40;;;;;;;3.03;2.30;;;20.40;46.60;;;;;;5063925;28;20670;-72
2021/10/13 10:48:17;;;;;;;2.83;2.53;;;19.40;48.00;;;;;;5069518;28;20232;-71
2021/10/13 10:51:09;;;;;;;2.50;2.30;;;18.60;49.50;;;;;;5072680;28;20200;-71
2021/10/13 10:53:42;;;;;;;2.88;2.63;;;17.80;50.90;;;;;;5055166;28;20679;-74
2021/10/13 10:56:27;;;;;;;4.57;3.13;;;17.10;52.30;;;;;;5054231;28;20220;-73
2021/10/13 10:59:01;;;;;;;3.45;2.47;;;16.50;54.00;;;;;;5062520;28;20221;-73
2021/10/13 11:01:28;;;;;;;2.73;2.47;;;16.20;55.60;;;;;;5064257;28;20209;-71
2021/10/13 11:03:55;;;;;;;3.20;2.40;;;18.20;67.20;;;;;;5059838;28;20218;-71
2021/10/13 11:06:25;;;;;;;2.38;2.17;;;22.70;53.20;;;;;;5066670;28;20738;-71
2021/10/13 11:08:58;;;;;;;2.38;2.17;;;26.90;44.00;;;;;;5055183;28;20206;-75
2021/10/13 11:11:29;;;;;;;1.67;1.58;;;27.30;39.50;;;;;;5058777;28;20206;-73
2021/10/13 11:14:04;;;;;;;3.15;2.22;;;25.70;39.20;;;;;;5062957;28;20206;-74
2021/10/13 11:16:32;;;;;;;2.40;2.20;;;23.80;41.50;;;;;;5070403;28;20319;-72
2021/10/13 11:19:15;;;;;;;3.17;2.20;;;22.30;43.50;;;;;;5074328;28;20236;-70
2021/10/13 11:21:43;;;;;;;2.67;2.47;;;21.80;46.70;;;;;;5069928;28;20204;-69
2021/10/13 11:24:11;;;;;;;2.22;2.03;;;19.40;48.30;;;;;;5063591;28;20208;-70
2021/10/13 11:26:38;;;;;;;2.72;1.75;;;18.40;50.20;;;;;;5072638;28;20212;-70
2021/10/13 11:29:19;;;;;;;3.17;2.03;;;17.60;52.20;;;;;;5068832;28;20236;-69
2021/10/13 11:31:46;;;;;;;3.85;2.17;;;17.20;53.80;;;;;;5061187;28;20553;-70
2021/10/13 11:34:17;;;;;;;2.30;2.08;;;16.80;54.50;;;;;;5072003;28;20209;-70
2021/10/13 11:36:52;;;;;;;1.83;1.73;;;16.50;55.00;;;;;;5069899;28;20233;-68
2021/10/13 11:39:21;;;;;;;1.70;1.60;;;16.00;55.30;;;;;;5063835;28;20212;-69
2021/10/13 11:41:48;;;;;;;2.37;2.17;;;15.60;56.40;;;;;;5072637;28;20201;-68
2021/10/13 11:44:20;;;;;;;2.27;2.07;;;15.20;57.20;;;;;;5061131;28;20202;-70
2021/10/13 11:47:03;;;;;;;2.57;2.37;;;14.80;58.20;;;;;;5068011;28;20288;-69
2021/10/13 11:49:31;;;;;;;2.40;2.20;;;14.40;59.50;;;;;;5065874;28;20231;-68
2021/10/13 11:52:14;;;;;;;3.73;2.60;;;14.00;60.50;;;;;;5073418;28;20611;-69
2021/10/13 11:54:42;;;;;;;2.43;2.23;;;13.80;61.90;;;;;;5054411;28;20209;-70
2021/10/13 11:57:10;;;;;;;2.83;2.53;;;13.60;62.70;;;;;;5051503;28;20213;-70
2021/10/13 11:59:38;;;;;;;2.27;1.83;;;13.50;63.50;;;;;;5055704;28;20556;-68
2021/10/13 12:02:25;;;;;;;1.90;1.80;;;13.40;64.30;;;;;;5055895;28;20201;-70
2021/10/13 12:04:54;;;;;;;2.10;1.97;;;13.20;65.30;;;;;;5052580;28;20224;-69
2021/10/13 12:07:23;;;;;;;3.97;2.10;;;13.10;66.10;;;;;;5059476;28;20208;-70
2021/10/13 12:09:58;;;;;;;1.87;1.73;;;13.00;66.70;;;;;;5066826;28;20622;-70
2021/10/13 12:12:26;;;;;;;2.13;1.93;;;12.80;67.30;;;;;;5070180;28;20200;-69
2021/10/13 12:14:54;;;;;;;2.53;2.30;;;12.80;68.50;;;;;;5057036;28;20201;-70
2021/10/13 12:17:27;;;;;;;3.40;2.33;;;12.70;69.20;;;;;;5068940;28;20608;-69
2021/10/13 12:19:54;;;;;;;3.07;2.00;;;12.60;69.70;;;;;;5055694;28;20224;-70
2021/10/13 12:22:21;;;;;;;3.53;2.20;;;12.50;70.50;;;;;;5056017;28;20209;-70
2021/10/13 12:24:48;;;;;;;4.63;2.30;;;12.40;71.40;;;;;;5052513;28;20297;-68
2021/10/13 12:27:27;;;;;;;2.77;2.57;;;12.30;72.30;;;;;;5058074;28;20202;-69
2021/10/13 12:29:56;;;;;;;2.37;2.17;;;12.20;73.30;;;;;;5054404;28;20328;-68
2021/10/13 12:32:26;;;;;;;2.77;2.47;;;12.10;73.80;;;;;;5052703;28;20209;-70
2021/10/13 12:34:54;;;;;;;2.73;2.50;;;12.00;74.60;;;;;;5054168;28;20212;-70
2021/10/13 12:37:25;;;;;;;2.70;2.43;;;11.90;75.50;;;;;;5052644;28;20222;-69
2021/10/13 12:39:52;;;;;;;4.10;2.80;;;11.80;76.60;;;;;;5063158;28;20201;-70
2021/10/13 12:42:23;;;;;;;3.23;2.93;;;11.70;78.00;;;;;;5059821;28;20206;-71
2021/10/13 12:44:58;;;;;;;4.73;3.07;;;11.60;79.80;;;;;;5054817;28;20297;-72
2021/10/13 12:47:27;;;;;;;4.10;3.70;;;11.50;82.60;;;;;;5055106;28;20201;-69
2021/10/13 12:49:57;;;;;;;3.50;3.20;;;11.40;86.30;;;;;;5061672;28;20205;-70
2021/10/13 12:52:30;;;;;;;3.47;3.17;;;11.20;90.10;;;;;;5065437;28;20280;-71
2021/10/13 12:54:57;;;;;;;4.07;3.47;;;11.10;92.60;;;;;;5052025;28;20233;-72